sensor_id;sensor_type;location;lat;lon;timestamp;pressure;altitude;pressure_sealevel;temperature
28305;BMP280;15569;42.652;23.040;2023-04-15T00:00:13;92235.09;;;11.38
28305;BMP280;15569;42.652;23.040;2023-04-15T00:02:40;92232.00;;;11.28
28305;BMP280;15569;42.652;23.040;2023-04-15T00:05:05;92230.88;;;11.16
28305;BMP280;15569;42.652;23.040;2023-04-15T00:07:31;92236.34;;;11.35
28305;BMP280;15569;42.652;23.040;2023-04-15T00:09:57;92238.56;;;11.21
28305;BMP280;15569;42.652;23.040;2023-04-15T00:12:23;92233.16;;;11.03
28305;BMP280;15569;42.652;23.040;2023-04-15T00:14:49;92237.97;;;11.25
28305;BMP280;15569;42.652;23.040;2023-04-15T00:17:15;92227.75;;;11.23
28305;BMP280;15569;42.652;23.040;2023-04-15T00:19:41;92214.78;;;11.22
28305;BMP280;15569;42.652;23.040;2023-04-15T00:22:06;92237.19;;;11.02
28305;BMP280;15569;42.652;23.040;2023-04-15T00:24:32;92232.69;;;11.09
28305;BMP280;15569;42.652;23.040;2023-04-15T00:26:58;92224.88;;;11.19
28305;BMP280;15569;42.652;23.040;2023-04-15T00:29:24;92226.69;;;11.13
28305;BMP280;15569;42.652;23.040;2023-04-15T00:31:50;92234.50;;;11.22
28305;BMP280;15569;42.652;23.040;2023-04-15T00:34:15;92228.84;;;11.16
28305;BMP280;15569;42.652;23.040;2023-04-15T00:36:41;92235.84;;;11.21
28305;BMP280;15569;42.652;23.040;2023-04-15T00:39:07;92242.81;;;11.26
28305;BMP280;15569;42.652;23.040;2023-04-15T00:41:32;92250.81;;;10.85
28305;BMP280;15569;42.652;23.040;2023-04-15T00:43:59;92240.41;;;10.62
28305;BMP280;15569;42.652;23.040;2023-04-15T00:46:26;92240.41;;;10.97
28305;BMP280;15569;42.652;23.040;2023-04-15T00:48:53;92237.19;;;11.02
28305;BMP280;15569;42.652;23.040;2023-04-15T00:51:19;92228.56;;;11.08
28305;BMP280;15569;42.652;23.040;2023-04-15T00:53:44;92241.19;;;11.19
28305;BMP280;15569;42.652;23.040;2023-04-15T00:56:10;92232.34;;;11.19
28305;BMP280;15569;42.652;23.040;2023-04-15T00:58:35;92237.59;;;11.32
28305;BMP280;15569;42.652;23.040;2023-04-15T01:01:01;92240.09;;;11.26
28305;BMP280;15569;42.652;23.040;2023-04-15T01:03:28;92236.31;;;11.16
28305;BMP280;15569;42.652;23.040;2023-04-15T01:05:54;92235.91;;;11.23
28305;BMP280;15569;42.652;23.040;2023-04-15T01:10:47;92238.47;;;11.19
28305;BMP280;15569;42.652;23.040;2023-04-15T01:13:13;92242.88;;;11.28
28305;BMP280;15569;42.652;23.040;2023-04-15T01:15:38;92227.06;;;11.23
28305;BMP280;15569;42.652;23.040;2023-04-15T01:18:04;92228.38;;;11.22
28305;BMP280;15569;42.652;23.040;2023-04-15T01:20:30;92234.50;;;11.22
28305;BMP280;15569;42.652;23.040;2023-04-15T01:22:55;92242.56;;;11.00
28305;BMP280;15569;42.652;23.040;2023-04-15T01:25:33;92248.19;;;11.24
28305;BMP280;15569;42.652;23.040;2023-04-15T01:27:59;92257.09;;;11.07
28305;BMP280;15569;42.652;23.040;2023-04-15T01:30:25;92242.19;;;10.73
28305;BMP280;15569;42.652;23.040;2023-04-15T01:32:51;92249.34;;;10.82
28305;BMP280;15569;42.652;23.040;2023-04-15T01:35:17;92247.13;;;10.76
28305;BMP280;15569;42.652;23.040;2023-04-15T01:37:43;92248.72;;;10.66
28305;BMP280;15569;42.652;23.040;2023-04-15T01:40:09;92246.69;;;10.84
28305;BMP280;15569;42.652;23.040;2023-04-15T01:42:35;92246.53;;;10.80
28305;BMP280;15569;42.652;23.040;2023-04-15T01:45:01;92241.41;;;10.53
28305;BMP280;15569;42.652;23.040;2023-04-15T01:47:27;92245.16;;;10.61
28305;BMP280;15569;42.652;23.040;2023-04-15T01:49:52;92240.66;;;10.68
28305;BMP280;15569;42.652;23.040;2023-04-15T01:52:18;92249.72;;;10.57
28305;BMP280;15569;42.652;23.040;2023-04-15T01:54:43;92245.63;;;10.56
28305;BMP280;15569;42.652;23.040;2023-04-15T01:57:09;92249.41;;;10.49
28305;BMP280;15569;42.652;23.040;2023-04-15T01:59:34;92249.91;;;10.43
28305;BMP280;15569;42.652;23.040;2023-04-15T02:02:00;92230.53;;;10.35
28305;BMP280;15569;42.652;23.040;2023-04-15T02:04:26;92251.72;;;10.39
28305;BMP280;15569;42.652;23.040;2023-04-15T02:06:52;92247.78;;;10.42
28305;BMP280;15569;42.652;23.040;2023-04-15T02:09:17;92242.75;;;10.34
28305;BMP280;15569;42.652;23.040;2023-04-15T02:11:43;92249.44;;;10.15
28305;BMP280;15569;42.652;23.040;2023-04-15T02:14:09;92241.56;;;10.06
28305;BMP280;15569;42.652;23.040;2023-04-15T02:16:34;92256.00;;;10.26
28305;BMP280;15569;42.652;23.040;2023-04-15T02:19:00;92248.50;;;10.09
28305;BMP280;15569;42.652;23.040;2023-04-15T02:21:26;92255.63;;;10.00
28305;BMP280;15569;42.652;23.040;2023-04-15T02:23:51;92254.06;;;9.95
28305;BMP280;15569;42.652;23.040;2023-04-15T02:26:18;92251.28;;;9.93
28305;BMP280;15569;42.652;23.040;2023-04-15T02:28:43;92241.66;;;9.75
28305;BMP280;15569;42.652;23.040;2023-04-15T02:31:09;92251.75;;;9.72
28305;BMP280;15569;42.652;23.040;2023-04-15T02:33:34;92262.59;;;9.41
28305;BMP280;15569;42.652;23.040;2023-04-15T02:36:01;92266.78;;;9.28
28305;BMP280;15569;42.652;23.040;2023-04-15T02:38:26;92259.31;;;8.98
28305;BMP280;15569;42.652;23.040;2023-04-15T02:40:51;92252.56;;;8.99
28305;BMP280;15569;42.652;23.040;2023-04-15T02:43:17;92272.03;;;9.24
28305;BMP280;15569;42.652;23.040;2023-04-15T02:45:45;92261.63;;;9.19
28305;BMP280;15569;42.652;23.040;2023-04-15T02:48:11;92263.38;;;9.43
28305;BMP280;15569;42.652;23.040;2023-04-15T02:50:36;92257.69;;;9.53
28305;BMP280;15569;42.652;23.040;2023-04-15T02:53:03;92262.59;;;9.41
28305;BMP280;15569;42.652;23.040;2023-04-15T02:55:30;92261.97;;;9.42
28305;BMP280;15569;42.652;23.040;2023-04-15T02:57:55;92273.19;;;9.50
28305;BMP280;15569;42.652;23.040;2023-04-15T03:00:23;92262.59;;;9.41
28305;BMP280;15569;42.652;23.040;2023-04-15T03:02:49;92272.47;;;9.19
28305;BMP280;15569;42.652;23.040;2023-04-15T03:05:21;92262.84;;;9.31
28305;BMP280;15569;42.652;23.040;2023-04-15T03:07:49;92273.94;;;9.22
28305;BMP280;15569;42.652;23.040;2023-04-15T03:10:14;92276.84;;;9.26
28305;BMP280;15569;42.652;23.040;2023-04-15T03:12:39;92276.13;;;9.25
28305;BMP280;15569;42.652;23.040;2023-04-15T03:15:07;92275.63;;;9.29
28305;BMP280;15569;42.652;23.040;2023-04-15T03:17:33;92292.25;;;9.37
28305;BMP280;15569;42.652;23.040;2023-04-15T03:19:58;92292.34;;;9.23
28305;BMP280;15569;42.652;23.040;2023-04-15T03:22:23;92295.63;;;9.22
28305;BMP280;15569;42.652;23.040;2023-04-15T03:24:50;92292.50;;;9.12
28305;BMP280;15569;42.652;23.040;2023-04-15T03:27:16;92297.47;;;9.17
28305;BMP280;15569;42.652;23.040;2023-04-15T03:29:41;92294.16;;;9.19
28305;BMP280;15569;42.652;23.040;2023-04-15T03:32:06;92298.75;;;9.01
28305;BMP280;15569;42.652;23.040;2023-04-15T03:34:32;92304.72;;;8.83
28305;BMP280;15569;42.652;23.040;2023-04-15T03:36:57;92314.19;;;8.82
28305;BMP280;15569;42.652;23.040;2023-04-15T03:39:22;92325.53;;;8.79
28305;BMP280;15569;42.652;23.040;2023-04-15T03:41:48;92329.53;;;8.78
28305;BMP280;15569;42.652;23.040;2023-04-15T03:44:13;92326.59;;;8.88
28305;BMP280;15569;42.652;23.040;2023-04-15T03:46:38;92331.41;;;8.89
28305;BMP280;15569;42.652;23.040;2023-04-15T03:49:06;92325.66;;;8.97
28305;BMP280;15569;42.652;23.040;2023-04-15T03:51:31;92326.81;;;8.78
28305;BMP280;15569;42.652;23.040;2023-04-15T03:53:56;92320.81;;;8.79
28305;BMP280;15569;42.652;23.040;2023-04-15T03:56:23;92321.63;;;8.68
28305;BMP280;15569;42.652;23.040;2023-04-15T03:58:48;92325.31;;;8.89
28305;BMP280;15569;42.652;23.040;2023-04-15T04:01:14;92312.09;;;8.67
28305;BMP280;15569;42.652;23.040;2023-04-15T04:03:39;92325.81;;;8.85
28305;BMP280;15569;42.652;23.040;2023-04-15T04:06:05;92325.88;;;8.87
28305;BMP280;15569;42.652;23.040;2023-04-15T04:08:30;92326.94;;;8.80
28305;BMP280;15569;42.652;23.040;2023-04-15T04:10:56;92314.34;;;8.87
28305;BMP280;15569;42.652;23.040;2023-04-15T04:13:22;92316.59;;;9.06
28305;BMP280;15569;42.652;23.040;2023-04-15T04:15:47;92316.09;;;9.09
28305;BMP280;15569;42.652;23.040;2023-04-15T04:18:13;92316.69;;;9.08
28305;BMP280;15569;42.652;23.040;2023-04-15T04:20:38;92318.00;;;9.07
28305;BMP280;15569;42.652;23.040;2023-04-15T04:23:03;92316.75;;;8.94
28305;BMP280;15569;42.652;23.040;2023-04-15T04:25:29;92322.97;;;8.97
28305;BMP280;15569;42.652;23.040;2023-04-15T04:27:54;92319.06;;;9.15
28305;BMP280;15569;42.652;23.040;2023-04-15T04:30:20;92323.72;;;9.28
28305;BMP280;15569;42.652;23.040;2023-04-15T04:32:46;92331.38;;;9.32
28305;BMP280;15569;42.652;23.040;2023-04-15T04:35:11;92336.16;;;9.33
28305;BMP280;15569;42.652;23.040;2023-04-15T04:37:37;92340.56;;;9.56
28305;BMP280;15569;42.652;23.040;2023-04-15T04:40:02;92339.25;;;9.73
28305;BMP280;15569;42.652;23.040;2023-04-15T04:42:28;92331.47;;;9.81
28305;BMP280;15569;42.652;23.040;2023-04-15T04:44:54;92333.03;;;9.86
28305;BMP280;15569;42.652;23.040;2023-04-15T04:47:19;92338.63;;;10.05
28305;BMP280;15569;42.652;23.040;2023-04-15T04:49:45;92338.34;;;10.15
28305;BMP280;15569;42.652;23.040;2023-04-15T04:52:10;92345.38;;;9.73
28305;BMP280;15569;42.652;23.040;2023-04-15T04:54:36;92350.72;;;10.02
28305;BMP280;15569;42.652;23.040;2023-04-15T04:57:01;92351.34;;;10.01
28305;BMP280;15569;42.652;23.040;2023-04-15T04:59:27;92356.78;;;9.85
28305;BMP280;15569;42.652;23.040;2023-04-15T05:01:52;92360.88;;;9.86
28305;BMP280;15569;42.652;23.040;2023-04-15T05:04:17;92367.94;;;9.46
28305;BMP280;15569;42.652;23.040;2023-04-15T05:06:43;92358.25;;;9.88
28305;BMP280;15569;42.652;23.040;2023-04-15T05:09:08;92364.72;;;10.12
28305;BMP280;15569;42.652;23.040;2023-04-15T05:11:34;92362.25;;;10.34
28305;BMP280;15569;42.652;23.040;2023-04-15T05:13:59;92359.13;;;10.57
28305;BMP280;15569;42.652;23.040;2023-04-15T05:16:26;92361.81;;;10.24
28305;BMP280;15569;42.652;23.040;2023-04-15T05:18:51;92360.38;;;10.39
28305;BMP280;15569;42.652;23.040;2023-04-15T05:21:17;92363.06;;;10.54
28305;BMP280;15569;42.652;23.040;2023-04-15T05:23:42;92358.03;;;10.31
28305;BMP280;15569;42.652;23.040;2023-04-15T05:26:08;92365.25;;;9.62
28305;BMP280;15569;42.652;23.040;2023-04-15T05:28:33;92365.28;;;9.93
28305;BMP280;15569;42.652;23.040;2023-04-15T05:30:59;92373.31;;;10.22
28305;BMP280;15569;42.652;23.040;2023-04-15T05:33:25;92375.91;;;10.36
28305;BMP280;15569;42.652;23.040;2023-04-15T05:35:50;92380.00;;;10.53
28305;BMP280;15569;42.652;23.040;2023-04-15T05:38:15;92373.91;;;10.70
28305;BMP280;15569;42.652;23.040;2023-04-15T05:40:41;92382.75;;;10.70
28305;BMP280;15569;42.652;23.040;2023-04-15T05:43:07;92374.53;;;10.86
28305;BMP280;15569;42.652;23.040;2023-04-15T05:45:32;92382.78;;;10.88
28305;BMP280;15569;42.652;23.040;2023-04-15T05:47:57;92396.72;;;11.14
28305;BMP280;15569;42.652;23.040;2023-04-15T05:50:23;92391.28;;;11.14
28305;BMP280;15569;42.652;23.040;2023-04-15T05:52:48;92387.19;;;11.30
28305;BMP280;15569;42.652;23.040;2023-04-15T05:55:14;92372.22;;;11.31
28305;BMP280;15569;42.652;23.040;2023-04-15T05:57:39;92380.50;;;11.70
28305;BMP280;15569;42.652;23.040;2023-04-15T06:00:05;92383.66;;;11.82
28305;BMP280;15569;42.652;23.040;2023-04-15T06:02:30;92391.66;;;11.78
28305;BMP280;15569;42.652;23.040;2023-04-15T06:04:56;92395.00;;;11.95
28305;BMP280;15569;42.652;23.040;2023-04-15T06:07:22;92393.44;;;12.29
28305;BMP280;15569;42.652;23.040;2023-04-15T06:09:48;92398.91;;;12.48
28305;BMP280;15569;42.652;23.040;2023-04-15T06:12:14;92408.00;;;12.16
28305;BMP280;15569;42.652;23.040;2023-04-15T06:14:39;92404.28;;;12.46
28305;BMP280;15569;42.652;23.040;2023-04-15T06:17:05;92412.53;;;12.48
28305;BMP280;15569;42.652;23.040;2023-04-15T06:19:31;92422.50;;;12.61
28305;BMP280;15569;42.652;23.040;2023-04-15T06:21:57;92412.34;;;12.84
28305;BMP280;15569;42.652;23.040;2023-04-15T06:24:22;92420.72;;;12.90
28305;BMP280;15569;42.652;23.040;2023-04-15T06:26:48;92425.31;;;12.44
28305;BMP280;15569;42.652;23.040;2023-04-15T06:29:13;92427.09;;;12.77
28305;BMP280;15569;42.652;23.040;2023-04-15T06:37:45;92426.88;;;12.90
28305;BMP280;15569;42.652;23.040;2023-04-15T06:40:11;92437.72;;;12.88
28305;BMP280;15569;42.652;23.040;2023-04-15T06:42:36;92435.09;;;12.92
28305;BMP280;15569;42.652;23.040;2023-04-15T06:45:02;92432.47;;;12.75
28305;BMP280;15569;42.652;23.040;2023-04-15T06:47:28;92431.75;;;12.33
28305;BMP280;15569;42.652;23.040;2023-04-15T06:49:53;92435.28;;;12.77
28305;BMP280;15569;42.652;23.040;2023-04-15T06:52:19;92425.34;;;12.24
28305;BMP280;15569;42.652;23.040;2023-04-15T06:54:44;92424.22;;;12.31
28305;BMP280;15569;42.652;23.040;2023-04-15T06:57:09;92424.16;;;12.71
28305;BMP280;15569;42.652;23.040;2023-04-15T06:59:35;92425.69;;;11.97
28305;BMP280;15569;42.652;23.040;2023-04-15T07:02:00;92412.34;;;11.85
28305;BMP280;15569;42.652;23.040;2023-04-15T07:04:26;92419.50;;;12.14
28305;BMP280;15569;42.652;23.040;2023-04-15T07:06:54;92421.94;;;12.06
28305;BMP280;15569;42.652;23.040;2023-04-15T07:09:21;92427.84;;;12.38
28305;BMP280;15569;42.652;23.040;2023-04-15T07:11:47;92420.28;;;12.17
28305;BMP280;15569;42.652;23.040;2023-04-15T07:14:13;92421.41;;;12.10
28305;BMP280;15569;42.652;23.040;2023-04-15T07:16:39;92413.72;;;12.24
28305;BMP280;15569;42.652;23.040;2023-04-15T07:19:04;92423.84;;;11.84
28305;BMP280;15569;42.652;23.040;2023-04-15T07:21:30;92426.44;;;12.37
28305;BMP280;15569;42.652;23.040;2023-04-15T07:23:55;92409.72;;;12.27
28305;BMP280;15569;42.652;23.040;2023-04-15T07:26:20;92422.25;;;12.34
28305;BMP280;15569;42.652;23.040;2023-04-15T07:28:46;92417.56;;;12.17
28305;BMP280;15569;42.652;23.040;2023-04-15T07:31:11;92425.53;;;12.50
28305;BMP280;15569;42.652;23.040;2023-04-15T07:33:37;92430.06;;;12.63
28305;BMP280;15569;42.652;23.040;2023-04-15T07:36:02;92431.47;;;12.64
28305;BMP280;15569;42.652;23.040;2023-04-15T07:38:28;92431.06;;;12.74
28305;BMP280;15569;42.652;23.040;2023-04-15T07:40:54;92433.53;;;12.85
28305;BMP280;15569;42.652;23.040;2023-04-15T07:43:19;92446.88;;;12.77
28305;BMP280;15569;42.652;23.040;2023-04-15T07:45:45;92447.84;;;12.64
28305;BMP280;15569;42.652;23.040;2023-04-15T07:48:10;92445.97;;;12.90
28305;BMP280;15569;42.652;23.040;2023-04-15T07:50:36;92450.78;;;13.13
28305;BMP280;15569;42.652;23.040;2023-04-15T07:53:02;92448.63;;;13.31
28305;BMP280;15569;42.652;23.040;2023-04-15T07:55:27;92462.16;;;13.27
28305;BMP280;15569;42.652;23.040;2023-04-15T07:57:54;92455.50;;;12.70
28305;BMP280;15569;42.652;23.040;2023-04-15T08:00:20;92462.06;;;12.82
28305;BMP280;15569;42.652;23.040;2023-04-15T08:02:46;92460.91;;;13.30
28305;BMP280;15569;42.652;23.040;2023-04-15T08:05:12;92467.19;;;13.35
28305;BMP280;15569;42.652;23.040;2023-04-15T08:07:39;92445.59;;;13.21
28305;BMP280;15569;42.652;23.040;2023-04-15T08:10:05;92463.84;;;13.60
28305;BMP280;15569;42.652;23.040;2023-04-15T08:12:31;92466.97;;;13.07
28305;BMP280;15569;42.652;23.040;2023-04-15T08:14:56;92471.50;;;12.99
28305;BMP280;15569;42.652;23.040;2023-04-15T08:17:22;92467.59;;;13.06
28305;BMP280;15569;42.652;23.040;2023-04-15T08:19:48;92469.91;;;13.13
28305;BMP280;15569;42.652;23.040;2023-04-15T08:22:13;92458.66;;;13.46
28305;BMP280;15569;42.652;23.040;2023-04-15T08:24:39;92467.16;;;13.13
28305;BMP280;15569;42.652;23.040;2023-04-15T08:27:05;92456.88;;;13.12
28305;BMP280;15569;42.652;23.040;2023-04-15T08:29:32;92453.19;;;13.25
28305;BMP280;15569;42.652;23.040;2023-04-15T08:31:59;92460.72;;;13.24
28305;BMP280;15569;42.652;23.040;2023-04-15T08:34:27;92448.66;;;13.77
28305;BMP280;15569;42.652;23.040;2023-04-15T08:39:39;92438.72;;;13.87
28305;BMP280;15569;42.652;23.040;2023-04-15T08:42:26;92438.91;;;13.93
28305;BMP280;15569;42.652;23.040;2023-04-15T08:44:52;92435.13;;;14.83
28305;BMP280;15569;42.652;23.040;2023-04-15T08:47:19;92418.47;;;15.01
28305;BMP280;15569;42.652;23.040;2023-04-15T08:49:45;92439.78;;;15.34
28305;BMP280;15569;42.652;23.040;2023-04-15T08:52:17;92437.88;;;15.72
28305;BMP280;15569;42.652;23.040;2023-04-15T08:54:43;92453.19;;;14.94
28305;BMP280;15569;42.652;23.040;2023-04-15T08:57:08;92440.91;;;14.95
28305;BMP280;15569;42.652;23.040;2023-04-15T08:59:34;92432.16;;;14.48
28305;BMP280;15569;42.652;23.040;2023-04-15T09:01:59;92437.84;;;14.81
28305;BMP280;15569;42.652;23.040;2023-04-15T09:04:27;92435.72;;;15.07
28305;BMP280;15569;42.652;23.040;2023-04-15T09:06:52;92428.94;;;15.08
28305;BMP280;15569;42.652;23.040;2023-04-15T09:09:17;92428.81;;;15.64
28305;BMP280;15569;42.652;23.040;2023-04-15T09:11:43;92434.31;;;15.04
28305;BMP280;15569;42.652;23.040;2023-04-15T09:14:08;92433.31;;;14.38
28305;BMP280;15569;42.652;23.040;2023-04-15T09:16:59;92428.63;;;14.43
28305;BMP280;15569;42.652;23.040;2023-04-15T09:19:25;92407.75;;;14.81
28305;BMP280;15569;42.652;23.040;2023-04-15T09:21:55;92423.81;;;15.54
28305;BMP280;15569;42.652;23.040;2023-04-15T09:24:22;92418.34;;;15.88
28305;BMP280;15569;42.652;23.040;2023-04-15T09:26:51;92430.88;;;15.97
28305;BMP280;15569;42.652;23.040;2023-04-15T09:29:16;92428.16;;;15.99
28305;BMP280;15569;42.652;23.040;2023-04-15T09:31:42;92438.47;;;15.07
28305;BMP280;15569;42.652;23.040;2023-04-15T09:34:08;92434.63;;;14.91
28305;BMP280;15569;42.652;23.040;2023-04-15T09:36:55;92427.06;;;14.89
28305;BMP280;15569;42.652;23.040;2023-04-15T09:39:21;92437.16;;;14.83
28305;BMP280;15569;42.652;23.040;2023-04-15T09:42:05;92436.03;;;15.19
28305;BMP280;15569;42.652;23.040;2023-04-15T09:44:30;92434.56;;;14.87
28305;BMP280;15569;42.652;23.040;2023-04-15T09:46:56;92448.00;;;14.79
28305;BMP280;15569;42.652;23.040;2023-04-15T09:49:21;92438.56;;;14.56
28305;BMP280;15569;42.652;23.040;2023-04-15T09:51:47;92442.78;;;14.61
28305;BMP280;15569;42.652;23.040;2023-04-15T09:54:18;92452.72;;;14.49
28305;BMP280;15569;42.652;23.040;2023-04-15T09:56:45;92415.13;;;14.23
28305;BMP280;15569;42.652;23.040;2023-04-15T09:59:10;92435.94;;;15.17
28305;BMP280;15569;42.652;23.040;2023-04-15T10:01:37;92437.03;;;15.04
28305;BMP280;15569;42.652;23.040;2023-04-15T10:04:03;92441.78;;;15.32
28305;BMP280;15569;42.652;23.040;2023-04-15T10:06:29;92428.72;;;15.93
28305;BMP280;15569;42.652;23.040;2023-04-15T10:08:57;92430.00;;;15.88
28305;BMP280;15569;42.652;23.040;2023-04-15T10:11:23;92427.78;;;15.81
28305;BMP280;15569;42.652;23.040;2023-04-15T10:13:49;92431.50;;;15.95
28305;BMP280;15569;42.652;23.040;2023-04-15T10:16:18;92419.31;;;16.38
28305;BMP280;15569;42.652;23.040;2023-04-15T10:18:45;92408.38;;;16.78
28305;BMP280;15569;42.652;23.040;2023-04-15T10:21:11;92396.47;;;17.07
28305;BMP280;15569;42.652;23.040;2023-04-15T10:23:45;92413.03;;;17.61
28305;BMP280;15569;42.652;23.040;2023-04-15T10:26:12;92412.16;;;18.00
28305;BMP280;15569;42.652;23.040;2023-04-15T10:28:39;92420.09;;;16.82
28305;BMP280;15569;42.652;23.040;2023-04-15T10:31:05;92412.88;;;17.49
28305;BMP280;15569;42.652;23.040;2023-04-15T10:33:32;92406.44;;;17.32
28305;BMP280;15569;42.652;23.040;2023-04-15T10:35:58;92403.09;;;16.50
28305;BMP280;15569;42.652;23.040;2023-04-15T10:59:06;92402.50;;;16.97
28305;BMP280;15569;42.652;23.040;2023-04-15T11:04:55;92397.28;;;16.72
28305;BMP280;15569;42.652;23.040;2023-04-15T11:12:55;92396.78;;;18.39
28305;BMP280;15569;42.652;23.040;2023-04-15T11:15:27;92393.75;;;17.09
28305;BMP280;15569;42.652;23.040;2023-04-15T11:17:57;92395.81;;;18.14
28305;BMP280;15569;42.652;23.040;2023-04-15T11:20:22;92390.47;;;18.28
28305;BMP280;15569;42.652;23.040;2023-04-15T11:22:52;92397.94;;;18.21
28305;BMP280;15569;42.652;23.040;2023-04-15T11:25:26;92398.94;;;17.35
28305;BMP280;15569;42.652;23.040;2023-04-15T11:27:53;92397.44;;;16.80
28305;BMP280;15569;42.652;23.040;2023-04-15T11:30:20;92402.16;;;17.21
28305;BMP280;15569;42.652;23.040;2023-04-15T11:32:50;92401.38;;;17.62
28305;BMP280;15569;42.652;23.040;2023-04-15T11:35:17;92398.66;;;17.14
28305;BMP280;15569;42.652;23.040;2023-04-15T11:37:46;92408.06;;;17.01
28305;BMP280;15569;42.652;23.040;2023-04-15T11:40:12;92390.53;;;17.23
28305;BMP280;15569;42.652;23.040;2023-04-15T11:42:39;92393.81;;;17.63
28305;BMP280;15569;42.652;23.040;2023-04-15T11:45:06;92383.03;;;18.43
28305;BMP280;15569;42.652;23.040;2023-04-15T11:47:33;92386.97;;;19.01
28305;BMP280;15569;42.652;23.040;2023-04-15T11:50:16;92376.66;;;19.04
28305;BMP280;15569;42.652;23.040;2023-04-15T11:52:58;92380.63;;;18.09
28305;BMP280;15569;42.652;23.040;2023-04-15T11:55:24;92374.44;;;18.08
28305;BMP280;15569;42.652;23.040;2023-04-15T11:58:14;92393.25;;;18.32
28305;BMP280;15569;42.652;23.040;2023-04-15T12:01:00;92383.06;;;17.79
28305;BMP280;15569;42.652;23.040;2023-04-15T12:03:27;92381.44;;;18.19
28305;BMP280;15569;42.652;23.040;2023-04-15T12:06:23;92387.31;;;17.92
28305;BMP280;15569;42.652;23.040;2023-04-15T12:14:01;92373.03;;;18.07
28305;BMP280;15569;42.652;23.040;2023-04-15T12:16:27;92382.28;;;18.34
28305;BMP280;15569;42.652;23.040;2023-04-15T12:18:55;92393.66;;;17.49
28305;BMP280;15569;42.652;23.040;2023-04-15T12:21:26;92386.41;;;17.24
28305;BMP280;15569;42.652;23.040;2023-04-15T12:23:56;92388.31;;;17.61
28305;BMP280;15569;42.652;23.040;2023-04-15T12:26:26;92390.09;;;17.42
28305;BMP280;15569;42.652;23.040;2023-04-15T12:28:55;92387.91;;;18.48
28305;BMP280;15569;42.652;23.040;2023-04-15T12:31:24;92376.38;;;17.96
28305;BMP280;15569;42.652;23.040;2023-04-15T12:33:50;92379.81;;;17.96
28305;BMP280;15569;42.652;23.040;2023-04-15T12:36:15;92384.88;;;18.22
28305;BMP280;15569;42.652;23.040;2023-04-15T12:38:41;92389.91;;;19.27
28305;BMP280;15569;42.652;23.040;2023-04-15T12:41:06;92401.06;;;19.52
28305;BMP280;15569;42.652;23.040;2023-04-15T12:43:31;92387.09;;;19.19
28305;BMP280;15569;42.652;23.040;2023-04-15T12:45:57;92386.13;;;20.09
28305;BMP280;15569;42.652;23.040;2023-04-15T12:48:22;92388.41;;;19.08
28305;BMP280;15569;42.652;23.040;2023-04-15T12:50:48;92366.09;;;19.86
28305;BMP280;15569;42.652;23.040;2023-04-15T12:53:13;92392.47;;;19.01
28305;BMP280;15569;42.652;23.040;2023-04-15T12:55:38;92395.00;;;19.73
28305;BMP280;15569;42.652;23.040;2023-04-15T13:08:11;92380.34;;;19.39
28305;BMP280;15569;42.652;23.040;2023-04-15T13:10:36;92391.66;;;20.09
28305;BMP280;15569;42.652;23.040;2023-04-15T13:13:03;92384.88;;;21.02
28305;BMP280;15569;42.652;23.040;2023-04-15T13:15:29;92372.13;;;21.98
28305;BMP280;15569;42.652;23.040;2023-04-15T13:17:54;92372.44;;;20.63
28305;BMP280;15569;42.652;23.040;2023-04-15T13:20:20;92383.50;;;20.57
28305;BMP280;15569;42.652;23.040;2023-04-15T13:22:46;92386.16;;;20.15
28305;BMP280;15569;42.652;23.040;2023-04-15T13:25:11;92387.66;;;20.94
28305;BMP280;15569;42.652;23.040;2023-04-15T13:27:37;92384.03;;;21.64
28305;BMP280;15569;42.652;23.040;2023-04-15T13:30:03;92402.75;;;20.35
28305;BMP280;15569;42.652;23.040;2023-04-15T13:32:29;92393.13;;;20.44
28305;BMP280;15569;42.652;23.040;2023-04-15T13:34:54;92399.94;;;20.09
28305;BMP280;15569;42.652;23.040;2023-04-15T13:37:27;92398.47;;;19.78
28305;BMP280;15569;42.652;23.040;2023-04-15T13:39:53;92406.97;;;20.68
28305;BMP280;15569;42.652;23.040;2023-04-15T13:42:20;92398.13;;;19.19
28305;BMP280;15569;42.652;23.040;2023-04-15T13:44:46;92383.41;;;20.07
28305;BMP280;15569;42.652;23.040;2023-04-15T13:47:11;92372.31;;;21.57
28305;BMP280;15569;42.652;23.040;2023-04-15T13:49:39;92378.66;;;22.59
28305;BMP280;15569;42.652;23.040;2023-04-15T13:52:04;92375.28;;;22.48
28305;BMP280;15569;42.652;23.040;2023-04-15T13:54:30;92390.31;;;20.26
28305;BMP280;15569;42.652;23.040;2023-04-15T13:56:55;92389.38;;;19.55
28305;BMP280;15569;42.652;23.040;2023-04-15T13:59:22;92394.47;;;20.19
28305;BMP280;15569;42.652;23.040;2023-04-15T14:01:47;92388.81;;;19.83
28305;BMP280;15569;42.652;23.040;2023-04-15T14:04:13;92383.69;;;19.25
28305;BMP280;15569;42.652;23.040;2023-04-15T14:06:38;92388.69;;;19.61
28305;BMP280;15569;42.652;23.040;2023-04-15T14:09:03;92392.78;;;19.50
28305;BMP280;15569;42.652;23.040;2023-04-15T14:11:29;92385.00;;;19.12
28305;BMP280;15569;42.652;23.040;2023-04-15T14:13:54;92391.69;;;20.21
28305;BMP280;15569;42.652;23.040;2023-04-15T14:16:20;92386.88;;;21.38
28305;BMP280;15569;42.652;23.040;2023-04-15T14:18:45;92375.91;;;20.64
28305;BMP280;15569;42.652;23.040;2023-04-15T14:21:10;92386.88;;;20.23
28305;BMP280;15569;42.652;23.040;2023-04-15T14:23:36;92390.22;;;19.84
28305;BMP280;15569;42.652;23.040;2023-04-15T14:26:01;92388.78;;;19.79
28305;BMP280;15569;42.652;23.040;2023-04-15T14:28:27;92395.56;;;19.50
28305;BMP280;15569;42.652;23.040;2023-04-15T14:30:52;92388.91;;;20.05
28305;BMP280;15569;42.652;23.040;2023-04-15T14:33:18;92395.63;;;19.66
28305;BMP280;15569;42.652;23.040;2023-04-15T14:35:43;92379.88;;;19.90
28305;BMP280;15569;42.652;23.040;2023-04-15T14:38:09;92380.59;;;19.93
28305;BMP280;15569;42.652;23.040;2023-04-15T14:40:35;92381.09;;;19.47
28305;BMP280;15569;42.652;23.040;2023-04-15T14:43:01;92386.94;;;20.64
28305;BMP280;15569;42.652;23.040;2023-04-15T14:45:26;92382.06;;;20.42
28305;BMP280;15569;42.652;23.040;2023-04-15T14:47:52;92384.03;;;19.97
28305;BMP280;15569;42.652;23.040;2023-04-15T14:50:18;92377.25;;;20.63